createdAt,value
2018-04-11T00:00:23.398Z,10.80
2018-04-11T00:02:50.991Z,10.93
2018-04-11T00:05:18.631Z,10.10
2018-04-11T00:07:46.226Z,10.30
2018-04-11T00:10:13.829Z,9.30
2018-04-11T00:12:41.458Z,9.03
2018-04-11T00:15:09.047Z,10.37
2018-04-11T00:17:37.405Z,9.13
2018-04-11T00:20:05.044Z,8.57
2018-04-11T00:22:32.642Z,10.70
2018-04-11T00:25:01.006Z,8.93
2018-04-11T00:27:28.618Z,8.73
2018-04-11T00:29:56.212Z,9.80
2018-04-11T00:32:23.830Z,8.80
2018-04-11T00:34:51.423Z,10.13
2018-04-11T00:37:19.010Z,9.80
2018-04-11T00:39:46.628Z,9.17
2018-04-11T00:42:14.221Z,9.00
2018-04-11T00:44:41.847Z,8.80
2018-04-11T00:47:09.443Z,9.03
2018-04-11T00:49:37.819Z,8.80
2018-04-11T00:52:05.442Z,10.40
2018-04-11T00:54:33.048Z,10.17
2018-04-11T00:57:00.670Z,8.33
2018-04-11T00:59:28.258Z,9.50
2018-04-11T01:01:55.842Z,9.53
2018-04-11T01:04:24.226Z,10.27
2018-04-11T01:06:52.582Z,9.07
2018-04-11T01:09:20.207Z,9.50
2018-04-11T01:11:47.794Z,9.83
2018-04-11T01:14:15.381Z,8.60
2018-04-11T01:16:43.760Z,9.80
2018-04-11T01:19:12.135Z,10.03
2018-04-11T01:21:40.530Z,10.80
2018-04-11T01:24:08.121Z,9.77
2018-04-11T01:26:35.748Z,8.77
2018-04-11T01:29:04.132Z,10.60
2018-04-11T01:31:31.714Z,8.53
2018-04-11T01:33:59.335Z,8.07
2018-04-11T01:36:27.695Z,8.70
2018-04-11T01:38:55.293Z,8.57
2018-04-11T01:41:22.914Z,11.00
2018-04-11T01:43:50.507Z,10.53
2018-04-11T01:46:18.894Z,9.67
2018-04-11T01:48:46.482Z,8.77
2018-04-11T01:51:14.070Z,9.80
2018-04-11T01:53:41.695Z,10.40
2018-04-11T01:56:09.290Z,9.50
2018-04-11T01:58:36.926Z,10.83
2018-04-11T02:01:04.512Z,9.93
2018-04-11T02:03:32.894Z,10.50
2018-04-11T02:06:00.496Z,8.93
2018-04-11T02:08:28.107Z,9.90
2018-04-11T02:10:55.700Z,9.57
2018-04-11T02:13:24.082Z,9.70
2018-04-11T02:15:52.450Z,9.20
2018-04-11T02:18:20.071Z,9.17
2018-04-11T02:20:47.662Z,9.97
2018-04-11T02:23:15.286Z,8.90
2018-04-11T02:25:42.879Z,8.97
2018-04-11T02:28:10.510Z,10.17
2018-04-11T02:30:38.114Z,9.57
2018-04-11T02:33:06.510Z,9.97
2018-04-11T02:35:34.876Z,10.33
2018-04-11T02:38:03.272Z,9.63
2018-04-11T02:40:30.878Z,10.80
2018-04-11T02:42:58.528Z,9.20
2018-04-11T02:45:26.123Z,8.07
2018-04-11T02:47:55.246Z,10.00
2018-04-11T02:50:23.594Z,9.33
2018-04-11T02:52:51.210Z,10.90
2018-04-11T02:55:18.810Z,10.27
2018-04-11T02:57:46.454Z,10.03
2018-04-11T03:00:14.047Z,10.73
2018-04-11T03:02:41.662Z,10.00
2018-04-11T03:05:09.263Z,10.10
2018-04-11T03:07:36.886Z,10.03
2018-04-11T03:10:04.476Z,9.47
2018-04-11T03:12:32.867Z,11.07
2018-04-11T03:15:00.466Z,11.93
2018-04-11T03:17:28.066Z,11.30
2018-04-11T03:19:55.682Z,10.30
2018-04-11T03:22:23.288Z,9.90
2018-04-11T03:24:50.912Z,11.30
2018-04-11T03:27:18.507Z,13.00
2018-04-11T03:29:46.121Z,10.20
2018-04-11T03:32:13.723Z,10.20
2018-04-11T03:34:41.344Z,10.53
2018-04-11T03:37:08.947Z,9.67
2018-04-11T03:39:36.566Z,9.90
2018-04-11T03:42:04.838Z,10.50
2018-04-11T03:44:32.466Z,9.50
2018-04-11T03:47:00.060Z,9.43
2018-04-11T03:49:27.683Z,9.80
2018-04-11T03:51:55.420Z,9.50
2018-04-11T03:54:23.041Z,10.23
2018-04-11T03:56:51.398Z,10.53
2018-04-11T03:59:19.018Z,9.70
2018-04-11T04:01:46.607Z,8.60
2018-04-11T04:04:14.225Z,10.00
2018-04-11T04:06:41.818Z,10.43
2018-04-11T04:09:09.444Z,10.87
2018-04-11T04:11:37.037Z,9.13
2018-04-11T04:14:16.486Z,9.80
2018-04-11T04:16:55.966Z,10.80
2018-04-11T04:19:35.345Z,9.40
2018-04-11T04:22:02.940Z,11.57
2018-04-11T04:24:31.334Z,11.63
2018-04-11T04:26:59.689Z,11.27
2018-04-11T04:29:27.418Z,11.03
2018-04-11T04:31:55.022Z,11.93
2018-04-11T04:34:23.402Z,10.43
2018-04-11T04:36:51.762Z,10.83
2018-04-11T04:39:19.387Z,10.17
2018-04-11T04:41:46.981Z,11.00
2018-04-11T04:44:14.581Z,10.93
2018-04-11T04:46:42.199Z,11.87
2018-04-11T04:49:09.797Z,11.47
2018-04-11T04:51:38.201Z,11.70
2018-04-11T04:54:05.790Z,11.20
2018-04-11T04:56:33.382Z,10.63
2018-04-11T04:59:01.831Z,11.73
2018-04-11T05:01:29.426Z,11.10
2018-04-11T05:03:57.809Z,13.13
2018-04-11T05:06:26.167Z,13.53
2018-04-11T05:08:53.787Z,12.07
2018-04-11T05:11:21.379Z,11.30
2018-04-11T05:13:48.997Z,12.67
2018-04-11T05:16:16.595Z,11.33
2018-04-11T05:18:44.226Z,13.07
2018-04-11T05:21:11.819Z,12.40
2018-04-11T05:23:39.425Z,13.00
2018-04-11T05:26:07.047Z,11.70
2018-04-11T05:28:34.643Z,12.70
2018-04-11T05:31:03.028Z,14.17
2018-04-11T05:33:30.624Z,13.37
2018-04-11T05:35:58.242Z,13.30
2018-04-11T05:38:25.840Z,14.70
2018-04-11T05:40:53.459Z,13.13
2018-04-11T05:43:21.823Z,15.17
2018-04-11T05:45:50.214Z,12.00
2018-04-11T05:48:18.566Z,11.67
2018-04-11T05:50:46.190Z,13.23
2018-04-11T05:53:13.792Z,13.33
2018-04-11T05:55:41.419Z,13.83
2018-04-11T05:58:09.010Z,14.30
2018-04-11T06:00:36.597Z,13.83
2018-04-11T06:03:04.980Z,13.93
2018-04-11T06:05:33.341Z,13.40
2018-04-11T06:08:00.963Z,12.47
2018-04-11T06:10:28.841Z,12.70
2018-04-11T06:12:56.467Z,13.37
2018-04-11T06:15:24.063Z,13.50
2018-04-11T06:17:51.678Z,12.70
2018-04-11T06:20:19.275Z,13.20
2018-04-11T06:22:46.953Z,13.27
2018-04-11T06:25:14.520Z,14.33
2018-04-11T06:27:42.142Z,11.87
2018-04-11T06:30:09.740Z,13.57
2018-04-11T06:32:37.371Z,14.10
2018-04-11T06:35:05.058Z,12.13
2018-04-11T06:37:32.657Z,12.97
2018-04-11T06:40:00.258Z,15.30
2018-04-11T06:42:27.882Z,12.53
2018-04-11T06:44:56.238Z,12.30
2018-04-11T06:47:23.882Z,14.67
2018-04-11T06:49:51.477Z,15.83
2018-04-11T06:52:19.866Z,14.10
2018-04-11T06:54:47.459Z,12.97
2018-04-11T06:57:15.082Z,12.93
2018-04-11T06:59:42.671Z,14.20
2018-04-11T07:02:10.294Z,13.90
2018-04-11T07:04:38.650Z,13.70
2018-04-11T07:07:06.323Z,13.80
2018-04-11T07:09:33.913Z,13.97
2018-04-11T07:12:01.547Z,12.80
2018-04-11T07:14:29.135Z,13.10
2018-04-11T07:16:56.750Z,12.47
2018-04-11T07:19:24.342Z,11.73
2018-04-11T07:21:52.740Z,12.63
2018-04-11T07:24:20.339Z,13.80
2018-04-11T07:26:47.974Z,14.23
2018-04-11T07:29:15.571Z,14.47
2018-04-11T07:31:43.161Z,14.43
2018-04-11T07:34:11.546Z,11.87
2018-04-11T07:36:39.906Z,13.07
2018-04-11T07:39:08.292Z,13.83
2018-04-11T07:41:36.651Z,14.10
2018-04-11T07:44:04.274Z,13.23
2018-04-11T07:46:31.866Z,12.67
2018-04-11T07:48:59.571Z,13.40
2018-04-11T07:51:27.180Z,12.50
2018-04-11T07:53:54.801Z,12.67
2018-04-11T07:56:22.395Z,11.37
2018-04-11T07:58:50.167Z,14.70
2018-04-11T08:01:17.845Z,13.40
2018-04-11T08:03:45.475Z,13.07
2018-04-11T08:06:13.065Z,12.67
2018-04-11T08:08:40.699Z,12.43
2018-04-11T08:11:08.295Z,15.33
2018-04-11T08:13:35.916Z,12.47
2018-04-11T08:16:03.509Z,12.73
2018-04-11T08:18:31.140Z,12.63
2018-04-11T08:20:58.739Z,13.07
2018-04-11T08:23:28.661Z,12.60
2018-04-11T08:25:57.107Z,13.60
2018-04-11T08:28:24.732Z,13.37
2018-04-11T08:30:52.426Z,12.50
2018-04-11T08:33:20.037Z,13.50
2018-04-11T08:35:48.394Z,13.33
2018-04-11T08:38:16.015Z,13.50
2018-04-11T08:40:43.657Z,12.53
2018-04-11T08:43:11.283Z,13.80
2018-04-11T08:45:39.650Z,12.40
2018-04-11T08:48:07.266Z,14.20
2018-04-11T08:50:34.855Z,11.93
2018-04-11T08:53:02.474Z,11.60
2018-04-11T08:55:30.070Z,12.17
2018-04-11T08:57:57.703Z,12.53
2018-04-11T09:00:25.299Z,12.27
2018-04-11T09:02:52.904Z,12.70
2018-04-11T09:05:21.295Z,14.73
2018-04-11T09:07:48.896Z,12.80
2018-04-11T09:10:16.544Z,12.33
2018-04-11T09:12:44.151Z,12.50
2018-04-11T09:15:12.542Z,13.80
2018-04-11T09:17:40.902Z,12.77
2018-04-11T09:20:08.531Z,14.10
2018-04-11T09:22:36.169Z,11.40
2018-04-11T09:25:03.790Z,13.40
2018-04-11T09:27:32.145Z,12.17
2018-04-11T09:29:59.761Z,13.20
2018-04-11T09:32:27.464Z,14.47
2018-04-11T09:34:55.116Z,12.77
2018-04-11T09:37:22.723Z,11.37
2018-04-11T09:39:51.111Z,13.73
2018-04-11T09:42:19.486Z,12.93
2018-04-11T09:44:47.910Z,11.30
2018-04-11T09:47:15.660Z,14.57
2018-04-11T09:49:43.278Z,12.60
2018-04-11T09:52:11.832Z,12.40
2018-04-11T09:54:39.695Z,13.30
2018-04-11T09:57:07.568Z,13.17
2018-04-11T09:59:35.415Z,12.70
2018-04-11T10:02:07.192Z,13.60
2018-04-11T10:04:35.055Z,14.67
2018-04-11T10:07:02.818Z,14.17
2018-04-11T10:09:30.597Z,12.60
2018-04-11T10:11:58.407Z,13.30
2018-04-11T10:14:26.315Z,14.63
2018-04-11T10:16:54.141Z,12.70
2018-04-11T10:19:21.957Z,12.40
2018-04-11T10:21:49.819Z,14.77
2018-04-11T10:24:17.578Z,14.17
2018-04-11T10:26:45.241Z,14.57
2018-04-11T10:29:13.030Z,15.70
2018-04-11T10:31:40.871Z,13.53
2018-04-11T10:34:08.635Z,13.80
2018-04-11T10:36:36.443Z,13.87
2018-04-11T10:39:05.024Z,12.80
2018-04-11T10:41:33.625Z,13.93
2018-04-11T10:44:01.543Z,12.60
2018-04-11T10:46:30.223Z,12.90
2018-04-11T10:48:58.729Z,14.93
2018-04-11T10:51:26.734Z,11.40
2018-04-11T10:53:54.330Z,14.93
2018-04-11T10:56:21.964Z,13.77
2018-04-11T10:58:49.645Z,12.60
2018-04-11T11:01:17.524Z,13.00
2018-04-11T11:03:45.126Z,13.43
2018-04-11T11:06:13.514Z,13.03
2018-04-11T11:08:41.872Z,12.37
2018-04-11T11:11:09.490Z,12.47
2018-04-11T11:13:37.095Z,11.50
2018-04-11T11:16:04.726Z,11.97
2018-04-11T11:18:32.782Z,12.90
2018-04-11T11:21:00.438Z,12.93
2018-04-11T11:23:28.033Z,14.27
2018-04-11T11:25:55.987Z,11.97
2018-04-11T11:28:23.859Z,12.30
2018-04-11T11:30:51.729Z,12.13
2018-04-11T11:33:20.097Z,13.03
2018-04-11T11:35:47.853Z,12.27
2018-04-11T11:38:15.462Z,13.40
2018-04-11T11:40:43.853Z,14.20
2018-04-11T11:43:11.679Z,13.83
2018-04-11T11:45:39.539Z,12.57
2018-04-11T11:48:07.406Z,14.40
2018-04-11T11:50:35.832Z,15.67
2018-04-11T11:53:04.198Z,13.20
2018-04-11T11:55:32.602Z,14.63
2018-04-11T11:58:00.195Z,14.17
2018-04-11T12:00:27.821Z,14.50
2018-04-11T12:02:55.443Z,14.00
2018-04-11T12:05:23.038Z,15.27
2018-04-11T12:07:50.749Z,15.93
2018-04-11T12:10:18.344Z,14.40
2018-04-11T12:12:46.750Z,14.10
2018-04-11T12:15:14.428Z,15.77
2018-04-11T12:17:42.212Z,14.87
2018-04-11T12:20:09.827Z,16.20
2018-04-11T12:22:37.446Z,14.27
2018-04-11T12:25:05.077Z,16.03
2018-04-11T12:27:32.694Z,15.93
2018-04-11T12:30:01.151Z,15.20
2018-04-11T12:32:28.778Z,14.80
2018-04-11T12:34:56.376Z,14.97
2018-04-11T12:37:24.015Z,17.23
2018-04-11T12:39:51.805Z,14.73
2018-04-11T12:42:20.196Z,16.20
2018-04-11T12:44:48.558Z,15.20
2018-04-11T12:47:16.191Z,17.57
2018-04-11T12:49:43.790Z,16.20
2018-04-11T12:52:11.416Z,16.27
2018-04-11T12:54:39.006Z,19.13
2018-04-11T12:57:06.737Z,17.30
2018-04-11T12:59:34.334Z,16.80
2018-04-11T13:02:02.728Z,18.20
2018-04-11T13:04:31.087Z,18.07
2018-04-11T13:06:58.719Z,17.83
2018-04-11T13:09:26.399Z,15.83
2018-04-11T13:11:54.030Z,18.97
2018-04-11T13:14:21.628Z,18.53
2018-04-11T13:16:49.250Z,18.63
2018-04-11T13:19:16.843Z,20.53
2018-04-11T13:21:44.483Z,19.27
2018-04-11T13:24:12.090Z,18.87
2018-04-11T13:26:40.487Z,18.40
2018-04-11T13:29:08.087Z,16.23
2018-04-11T13:31:35.736Z,17.40
2018-04-11T13:34:03.333Z,17.57
2018-04-11T13:36:31.714Z,18.10
2018-04-11T13:39:00.855Z,17.23
2018-04-11T13:41:28.447Z,14.80
2018-04-11T13:43:56.071Z,16.60
2018-04-11T13:46:23.683Z,16.37
2018-04-11T13:48:51.303Z,15.80
2018-04-11T13:51:18.896Z,16.70
2018-04-11T13:53:46.521Z,17.40
2018-04-11T13:56:14.209Z,19.67
2018-04-11T13:58:41.837Z,16.83
2018-04-11T14:01:09.443Z,16.97
2018-04-11T14:03:37.064Z,17.80
2018-04-11T14:06:04.698Z,18.00
2018-04-11T14:08:32.317Z,18.07
2018-04-11T14:10:59.920Z,18.00
2018-04-11T14:13:28.308Z,16.30
2018-04-11T14:15:56.676Z,14.03
2018-04-11T14:18:25.073Z,15.23
2018-04-11T14:20:52.685Z,17.13
2018-04-11T14:23:20.540Z,15.77
2018-04-11T14:25:48.135Z,12.90
2018-04-11T14:28:15.763Z,14.83
2018-04-11T14:30:43.366Z,16.20
2018-04-11T14:33:11.765Z,14.53
2018-04-11T14:35:39.355Z,16.57
2018-04-11T14:38:06.974Z,16.70
2018-04-11T14:40:35.330Z,16.13
2018-04-11T14:43:02.965Z,15.63
2018-04-11T14:45:30.566Z,17.10
2018-04-11T14:47:58.183Z,14.03
2018-04-11T14:50:25.779Z,14.90
2018-04-11T14:52:53.405Z,14.57
2018-04-11T14:55:21.001Z,16.63
2018-04-11T14:57:48.636Z,13.57
2018-04-11T15:00:16.237Z,17.03
2018-04-11T15:02:44.594Z,14.87
2018-04-11T15:05:12.216Z,14.20
2018-04-11T15:07:39.816Z,15.83
2018-04-11T15:10:07.443Z,14.30
2018-04-11T15:12:35.034Z,15.50
2018-04-11T15:15:03.433Z,15.50
2018-04-11T15:17:31.796Z,13.93
2018-04-11T15:19:59.432Z,14.90
2018-04-11T15:22:27.030Z,14.83
2018-04-11T15:24:55.392Z,14.60
2018-04-11T15:27:23.023Z,14.67
2018-04-11T15:29:50.627Z,13.73
2018-04-11T15:32:18.259Z,15.67
2018-04-11T15:34:45.865Z,15.17
2018-04-11T15:37:14.271Z,14.80
2018-04-11T15:39:41.867Z,15.57
2018-04-11T15:42:09.493Z,13.27
2018-04-11T15:44:37.093Z,15.67
2018-04-11T15:47:04.690Z,11.90
2018-04-11T15:49:33.091Z,14.73
2018-04-11T15:52:00.773Z,12.80
2018-04-11T15:54:28.435Z,12.67
2018-04-11T15:56:56.033Z,15.07
2018-04-11T15:59:23.655Z,15.80
2018-04-11T16:01:51.252Z,13.20
2018-04-11T16:04:18.880Z,14.50
2018-04-11T16:06:46.475Z,13.93
2018-04-11T16:09:14.863Z,13.30
2018-04-11T16:11:43.240Z,14.40
2018-04-11T16:14:10.873Z,13.00
2018-04-11T16:16:38.492Z,15.37
2018-04-11T16:19:06.091Z,13.60
2018-04-11T16:21:33.715Z,13.27
2018-04-11T16:24:01.307Z,14.60
2018-04-11T16:26:28.926Z,13.50
2018-04-11T16:28:56.530Z,12.77
2018-04-11T16:31:24.148Z,15.43
2018-04-11T16:33:51.751Z,13.10
2018-04-11T16:36:19.387Z,14.70
2018-04-11T16:38:46.975Z,15.17
2018-04-11T16:41:14.567Z,15.47
2018-04-11T16:43:42.195Z,16.00
2018-04-11T16:46:09.790Z,15.53
2018-04-11T16:48:37.414Z,14.63
2018-04-11T16:51:05.023Z,14.40
2018-04-11T16:53:33.419Z,12.83
2018-04-11T16:56:01.022Z,13.77
2018-04-11T16:58:28.640Z,13.70
2018-04-11T17:00:56.239Z,14.83
2018-04-11T17:03:23.869Z,14.27
2018-04-11T17:05:51.482Z,13.97
2018-04-11T17:08:19.082Z,12.90
2018-04-11T17:10:46.702Z,12.60
2018-04-11T17:13:15.066Z,14.87
2018-04-11T17:15:42.683Z,14.20
2018-04-11T17:18:10.291Z,13.37
2018-04-11T17:20:50.164Z,11.83
2018-04-11T17:23:30.490Z,15.43
2018-04-11T17:26:09.932Z,14.23
2018-04-11T17:28:49.506Z,13.10
2018-04-11T17:31:23.929Z,13.57
2018-04-11T17:33:52.480Z,12.63
2018-04-11T17:36:20.353Z,13.77
2018-04-11T17:38:47.952Z,14.47
2018-04-11T17:41:15.858Z,13.90
2018-04-11T17:43:44.031Z,14.13
2018-04-11T17:46:12.001Z,13.43
2018-04-11T17:48:40.174Z,12.83
2018-04-11T17:51:10.626Z,13.80
2018-04-11T17:53:40.654Z,13.13
2018-04-11T17:56:10.135Z,17.00
2018-04-11T17:58:40.150Z,15.20
2018-04-11T18:01:07.955Z,14.60
2018-04-11T18:03:36.307Z,15.57
2018-04-11T18:06:03.954Z,14.57
2018-04-11T18:08:31.561Z,17.10
2018-04-11T18:10:59.933Z,14.63
2018-04-11T18:13:28.315Z,15.00
2018-04-11T18:15:56.675Z,15.83
2018-04-11T18:18:24.305Z,15.60
2018-04-11T18:20:51.910Z,16.13
2018-04-11T18:23:20.309Z,15.90
2018-04-11T18:25:48.683Z,18.23
2018-04-11T18:28:17.068Z,18.00
2018-04-11T18:30:44.672Z,16.20
2018-04-11T18:33:12.296Z,18.43
2018-04-11T18:35:39.898Z,17.20
2018-04-11T18:38:07.520Z,18.00
2018-04-11T18:40:35.116Z,18.80
2018-04-11T18:43:02.738Z,17.23
2018-04-11T18:45:30.358Z,18.07
2018-04-11T18:47:57.970Z,21.10
2018-04-11T18:50:25.650Z,15.87
2018-04-11T18:52:53.246Z,19.00
2018-04-11T18:55:20.899Z,17.57
2018-04-11T18:57:48.494Z,17.10
2018-04-11T19:00:16.891Z,16.70
2018-04-11T19:02:44.494Z,17.20
2018-04-11T19:05:12.095Z,17.43
2018-04-11T19:07:40.479Z,18.63
2018-04-11T19:10:08.074Z,19.90
2018-04-11T19:12:35.711Z,22.93
2018-04-11T19:15:03.307Z,19.10
2018-04-11T19:17:30.931Z,20.40
2018-04-11T19:19:58.536Z,19.70
2018-04-11T19:22:26.161Z,18.73
2018-04-11T19:24:53.758Z,22.50
2018-04-11T19:27:21.383Z,22.00
2018-04-11T19:29:48.975Z,19.73
2018-04-11T19:32:16.595Z,19.70
2018-04-11T19:34:45.084Z,20.30
2018-04-11T19:37:12.723Z,22.10
2018-04-11T19:39:40.345Z,23.50
2018-04-11T19:42:07.939Z,18.70
2018-04-11T19:44:36.323Z,18.07
2018-04-11T19:47:04.681Z,17.30
2018-04-11T19:49:33.070Z,20.17
2018-04-11T19:52:01.435Z,19.10
2018-04-11T19:54:29.074Z,20.20
2018-04-11T19:56:56.663Z,22.30
2018-04-11T19:59:24.324Z,17.67
2018-04-11T20:01:51.912Z,18.77
2018-04-11T20:04:19.530Z,18.07
2018-04-11T20:06:47.227Z,17.83
2018-04-11T20:09:15.606Z,18.67
2018-04-11T20:11:43.979Z,20.10
2018-04-11T20:14:12.368Z,13.63
2018-04-11T20:16:39.977Z,18.93
2018-04-11T20:19:07.601Z,21.50
2018-04-11T20:21:35.194Z,18.03
2018-04-11T20:24:02.792Z,19.57
2018-04-11T20:26:31.182Z,19.97
2018-04-11T20:28:59.548Z,17.53
2018-04-11T20:31:27.937Z,17.77
2018-04-11T20:33:56.298Z,20.37
2018-04-11T20:36:23.921Z,23.83
2018-04-11T20:38:51.513Z,20.90
2018-04-11T20:41:19.330Z,21.43
2018-04-11T20:43:46.923Z,24.20
2018-04-11T20:46:14.554Z,19.20
2018-04-11T20:48:42.161Z,19.27
2018-04-11T20:51:09.760Z,19.60
2018-04-11T20:53:37.387Z,17.57
2018-04-11T20:56:04.984Z,18.97
2018-04-11T20:58:32.616Z,16.80
2018-04-11T21:01:01.172Z,13.57
2018-04-11T21:03:28.812Z,18.20
2018-04-11T21:05:56.443Z,16.57
2018-04-11T21:08:24.089Z,16.93
2018-04-11T21:10:52.457Z,16.60
2018-04-11T21:13:20.054Z,15.93
2018-04-11T21:15:47.677Z,15.67
2018-04-11T21:18:15.282Z,16.27
2018-04-11T21:20:42.902Z,15.30
2018-04-11T21:23:10.499Z,13.90
2018-04-11T21:25:38.544Z,13.47
2018-04-11T21:28:06.482Z,14.17
2018-04-11T21:30:34.276Z,14.83
2018-04-11T21:33:02.930Z,13.70
2018-04-11T21:35:30.798Z,14.03
2018-04-11T21:37:58.666Z,11.80
2018-04-11T21:40:26.273Z,12.20
2018-04-11T21:42:53.889Z,13.13
2018-04-11T21:45:21.484Z,11.63
2018-04-11T21:47:49.867Z,10.70
2018-04-11T21:50:18.226Z,11.00
2018-04-11T21:52:45.842Z,11.57
2018-04-11T21:55:13.431Z,9.50
2018-04-11T21:57:41.063Z,10.07
2018-04-11T22:00:11.431Z,10.23
2018-04-11T22:02:39.060Z,7.13
2018-04-11T22:05:06.668Z,10.10
2018-04-11T22:07:35.022Z,8.40
2018-04-11T22:10:02.642Z,9.50
2018-04-11T22:12:30.232Z,9.60
2018-04-11T22:14:57.858Z,8.10
2018-04-11T22:17:25.450Z,9.20
2018-04-11T22:19:53.060Z,9.07
2018-04-11T22:22:20.663Z,8.77
2018-04-11T22:24:49.818Z,10.10
2018-04-11T22:27:18.169Z,9.00
2018-04-11T22:29:45.763Z,9.10
2018-04-11T22:32:13.383Z,9.00
2018-04-11T22:34:40.978Z,10.27
2018-04-11T22:37:08.595Z,9.40
2018-04-11T22:39:36.206Z,9.17
2018-04-11T22:42:03.823Z,8.00
2018-04-11T22:44:32.943Z,8.50
2018-04-11T22:47:01.334Z,8.63
2018-04-11T22:49:29.690Z,8.60
2018-04-11T22:51:57.308Z,8.80
2018-04-11T22:54:24.894Z,8.47
2018-04-11T22:56:52.521Z,8.40
2018-04-11T22:59:20.118Z,7.30
2018-04-11T23:01:47.702Z,8.13
2018-04-11T23:04:16.133Z,7.47
2018-04-11T23:06:43.730Z,8.60
2018-04-11T23:09:11.352Z,7.90
2018-04-11T23:11:38.938Z,8.20
2018-04-11T23:14:06.530Z,9.60
2018-04-11T23:16:34.905Z,9.47
2018-04-11T23:19:03.260Z,8.77
2018-04-11T23:21:32.394Z,7.83
2018-04-11T23:23:59.979Z,9.50
2018-04-11T23:26:27.561Z,9.57
2018-04-11T23:28:55.174Z,8.27
2018-04-11T23:31:23.527Z,9.80
2018-04-11T23:33:51.142Z,9.33
2018-04-11T23:36:18.726Z,7.40
2018-04-11T23:38:46.338Z,7.90
2018-04-11T23:41:13.932Z,8.57
2018-04-11T23:43:41.542Z,8.07
2018-04-11T23:46:09.896Z,7.30
2018-04-11T23:48:37.511Z,7.13
2018-04-11T23:51:05.105Z,7.00
2018-04-11T23:53:32.737Z,6.63
2018-04-11T23:56:00.330Z,7.90
2018-04-11T23:58:27.948Z,7.30
